Time;durP1;ratioP1;P1;durP2;ratioP2;P2;SDS_P1;SDS_P2;PMS_P1;PMS_P2;Temp;Humidity;BMP_temperature;BMP_pressure;BME280_temperature;BME280_humidity;BME280_pressure;Samples;Min_cycle;Max_cycle;Signal;HPM_P1;HPM_P2
2022/05/15 00:00:55;;;;;;;8.10;7.30;;;;;22.30;100930.00;;;;2078742;28;20288;-58
2022/05/15 00:01:56;;;;;;;8.70;7.87;;;;;22.30;100936.00;;;;2078215;28;20221;-58
2022/05/15 00:02:56;;;;;;;7.73;7.03;;;;;22.30;100938.00;;;;2078479;28;20210;-58
2022/05/15 00:03:56;;;;;;;7.90;7.10;;;;;22.30;100922.00;;;;2079044;28;20312;-58
2022/05/15 00:04:57;;;;;;;10.63;8.10;;;;;22.30;100893.00;;;;2079070;28;20230;-59
2022/05/15 00:05:58;;;;;;;7.83;7.03;;;;;22.30;100923.00;;;;2078351;28;20213;-57
2022/05/15 00:06:59;;;;;;;8.07;7.35;;;;;22.30;100919.00;;;;2079044;28;20749;-57
2022/05/15 00:07:59;;;;;;;8.40;7.50;;;;;22.30;100934.00;;;;2079161;28;20257;-57
2022/05/15 00:08:59;;;;;;;8.40;7.10;;;;;22.30;100930.00;;;;2078903;28;20225;-57
2022/05/15 00:10:00;;;;;;;11.37;8.40;;;;;22.30;100937.00;;;;2078752;28;20226;-58
2022/05/15 00:11:01;;;;;;;8.53;7.73;;;;;22.30;100935.00;;;;2078446;28;20227;-57
2022/05/15 00:12:03;;;;;;;8.03;7.23;;;;;22.30;100912.00;;;;2062145;28;20298;-57
2022/05/15 00:13:05;;;;;;;8.10;7.30;;;;;22.30;100930.00;;;;2070407;28;20305;-55
2022/05/15 00:14:06;;;;;;;8.07;7.28;;;;;22.30;100924.00;;;;2070556;28;20834;-54
2022/05/15 00:15:06;;;;;;;8.83;7.93;;;;;22.30;100933.00;;;;2078240;28;20210;-54
2022/05/15 00:16:07;;;;;;;8.40;7.60;;;;;22.30;100933.00;;;;2078529;28;20214;-54
2022/05/15 00:17:07;;;;;;;7.33;6.63;;;;;22.30;100921.00;;;;2078906;28;20260;-54
2022/05/15 00:18:08;;;;;;;7.67;7.00;;;;;22.30;100939.00;;;;2079088;28;20708;-54
2022/05/15 00:19:09;;;;;;;7.77;7.07;;;;;22.30;100931.00;;;;2079072;28;20288;-54
2022/05/15 00:20:10;;;;;;;7.97;7.18;;;;;22.40;100931.00;;;;2078178;28;20220;-54
2022/05/15 00:21:11;;;;;;;9.87;7.40;;;;;22.30;100935.00;;;;2078747;28;20283;-54
2022/05/15 00:22:11;;;;;;;8.60;7.80;;;;;22.30;100932.00;;;;2078784;28;20589;-54
2022/05/15 00:23:12;;;;;;;9.13;7.23;;;;;22.30;100931.00;;;;2077353;28;20225;-54
2022/05/15 00:24:12;;;;;;;8.10;7.40;;;;;22.30;100920.00;;;;2078991;28;20217;-54
2022/05/15 00:25:12;;;;;;;8.80;7.27;;;;;22.30;100923.00;;;;2078973;28;20455;-54
2022/05/15 00:26:13;;;;;;;7.83;6.97;;;;;22.30;100917.00;;;;2078095;28;20232;-54
2022/05/15 00:27:13;;;;;;;9.53;7.50;;;;;22.30;100920.00;;;;2078766;28;20217;-54
2022/05/15 00:28:13;;;;;;;8.40;7.10;;;;;22.30;100922.00;;;;2078748;28;22410;-55
2022/05/15 00:29:14;;;;;;;7.70;7.03;;;;;22.30;100924.00;;;;2078852;28;20286;-55
2022/05/15 00:30:17;;;;;;;8.50;7.70;;;;;22.30;100924.00;;;;2078889;28;20248;-55
2022/05/15 00:31:18;;;;;;;8.00;7.20;;;;;22.30;100922.00;;;;2078133;28;20371;-55
2022/05/15 00:32:18;;;;;;;7.90;7.10;;;;;22.30;100923.00;;;;2078283;28;20209;-56
2022/05/15 00:33:19;;;;;;;7.70;7.00;;;;;22.30;100926.00;;;;2078544;28;20217;-56
2022/05/15 00:34:19;;;;;;;7.50;6.80;;;;;22.30;100925.00;;;;2070214;28;20210;-56
2022/05/15 00:35:19;;;;;;;7.83;7.10;;;;;22.30;100933.00;;;;2069681;28;20210;-55
2022/05/15 00:36:20;;;;;;;7.73;7.03;;;;;22.30;100927.00;;;;2078620;28;20209;-56
2022/05/15 00:37:20;;;;;;;10.10;7.70;;;;;22.30;100925.00;;;;2078830;28;20210;-56
2022/05/15 00:38:20;;;;;;;7.80;7.00;;;;;22.30;100919.00;;;;2078931;28;20724;-56
2022/05/15 00:39:21;;;;;;;8.63;7.50;;;;;22.30;100927.00;;;;2077359;28;20610;-55
2022/05/15 00:40:22;;;;;;;7.70;7.10;;;;;22.30;100921.00;;;;2077881;28;20214;-55
2022/05/15 00:41:22;;;;;;;7.50;6.80;;;;;22.30;100927.00;;;;2078027;28;20325;-56
2022/05/15 00:42:23;;;;;;;8.87;6.90;;;;;22.30;100924.00;;;;2075375;28;21032;-56
2022/05/15 00:43:41;;;;;;;7.37;6.77;;;;;22.30;100924.00;;;;2070307;28;20245;-54
2022/05/15 00:44:41;;;;;;;8.82;7.90;;;;;22.30;100926.00;;;;2076667;28;20271;-55
2022/05/15 00:45:42;;;;;;;7.40;6.60;;;;;22.30;100924.00;;;;2077364;28;20369;-54
2022/05/15 00:46:42;;;;;;;8.67;7.53;;;;;22.30;100922.00;;;;2078340;28;20558;-56
2022/05/15 00:47:42;;;;;;;8.10;7.30;;;;;22.30;100926.00;;;;2076800;28;21224;-55
2022/05/15 00:48:43;;;;;;;8.33;7.33;;;;;22.30;100889.00;;;;2078288;28;20213;-54
2022/05/15 00:49:43;;;;;;;7.50;6.80;;;;;22.20;100924.00;;;;2078300;28;20236;-54
2022/05/15 00:50:43;;;;;;;8.20;7.40;;;;;22.30;100918.00;;;;2078112;28;20240;-54
2022/05/15 00:51:46;;;;;;;10.93;7.17;;;;;22.30;100913.00;;;;2069422;28;20217;-54
2022/05/15 00:52:48;;;;;;;8.15;7.35;;;;;22.30;100932.00;;;;2054075;28;20608;-54
2022/05/15 00:53:50;;;;;;;7.90;7.10;;;;;22.20;100930.00;;;;2061878;28;21616;-54
2022/05/15 00:54:59;;;;;;;9.20;7.10;;;;;22.20;100910.00;;;;2078205;28;20753;-54
2022/05/15 00:56:00;;;;;;;7.28;6.57;;;;;22.20;100922.00;;;;2069826;28;20206;-55
2022/05/15 00:57:01;;;;;;;6.90;6.20;;;;;22.20;100919.00;;;;2069543;28;20492;-56
2022/05/15 00:58:12;;;;;;;7.13;6.43;;;;;22.20;100917.00;;;;2078079;28;20209;-54
2022/05/15 00:59:14;;;;;;;7.60;6.88;;;;;22.20;100922.00;;;;2069941;28;20218;-54
2022/05/15 01:00:16;;;;;;;7.60;6.90;;;;;22.20;100920.00;;;;2070741;28;20214;-54
2022/05/15 01:01:17;;;;;;;7.80;6.93;;;;;22.20;100923.00;;;;2077866;28;20214;-54
2022/05/15 01:02:17;;;;;;;7.50;6.70;;;;;22.20;100928.00;;;;2069839;28;20301;-54
2022/05/15 01:03:18;;;;;;;7.20;6.50;;;;;22.10;100924.00;;;;2067970;28;20322;-54
2022/05/15 01:04:19;;;;;;;7.38;6.68;;;;;22.10;100913.00;;;;2069745;28;20749;-54
2022/05/15 01:05:19;;;;;;;7.77;6.97;;;;;22.10;100914.00;;;;2076895;28;24956;-54
2022/05/15 01:06:20;;;;;;;8.17;7.40;;;;;22.10;100922.00;;;;2077809;28;20221;-54
2022/05/15 01:07:20;;;;;;;7.03;6.30;;;;;22.10;100919.00;;;;2077507;28;20271;-54
2022/05/15 01:08:21;;;;;;;7.70;6.93;;;;;22.10;100926.00;;;;2067981;28;20225;-54
2022/05/15 01:09:21;;;;;;;7.43;6.73;;;;;22.10;100914.00;;;;2078129;28;20221;-54
2022/05/15 01:10:21;;;;;;;7.03;6.20;;;;;22.10;100920.00;;;;2069895;28;20817;-54
2022/05/15 01:11:22;;;;;;;7.53;6.83;;;;;22.10;100924.00;;;;2077972;28;20225;-54
2022/05/15 01:12:23;;;;;;;8.03;6.80;;;;;22.10;100926.00;;;;2069810;28;20793;-54
2022/05/15 01:13:23;;;;;;;10.10;6.40;;;;;22.10;100927.00;;;;2061651;28;20234;-54
2022/05/15 01:14:24;;;;;;;7.67;6.17;;;;;22.10;100932.00;;;;2069574;28;20241;-54
2022/05/15 01:15:25;;;;;;;8.10;7.30;;;;;22.10;100922.00;;;;2077170;28;20229;-54
2022/05/15 01:16:26;;;;;;;7.50;6.70;;;;;22.10;100935.00;;;;2069668;28;21021;-54
2022/05/15 01:17:26;;;;;;;7.60;6.80;;;;;22.10;100887.00;;;;2069671;28;20209;-54
2022/05/15 01:18:28;;;;;;;7.63;6.70;;;;;22.10;100926.00;;;;2069759;28;20213;-54
2022/05/15 01:19:29;;;;;;;7.22;6.53;;;;;22.10;100930.00;;;;2077544;28;20336;-54
2022/05/15 01:20:30;;;;;;;6.53;6.03;;;;;22.00;100925.00;;;;2078517;28;20249;-54
2022/05/15 01:21:34;;;;;;;7.07;6.37;;;;;22.10;100926.00;;;;2077847;28;20209;-54
2022/05/15 01:22:34;;;;;;;6.95;6.35;;;;;22.00;100917.00;;;;2069562;28;20222;-55
2022/05/15 01:23:34;;;;;;;6.70;6.13;;;;;22.00;100919.00;;;;2077759;28;20235;-54
2022/05/15 01:24:35;;;;;;;7.40;6.80;;;;;22.00;100916.00;;;;2078595;28;20725;-54
2022/05/15 01:25:36;;;;;;;7.10;6.50;;;;;22.10;100916.00;;;;2077885;28;20217;-55
2022/05/15 01:26:37;;;;;;;6.97;6.37;;;;;22.00;100913.00;;;;2078695;28;20218;-55
2022/05/15 01:27:37;;;;;;;6.13;5.63;;;;;22.00;100913.00;;;;2077149;28;20907;-54
2022/05/15 01:28:37;;;;;;;7.57;6.87;;;;;22.00;100914.00;;;;2077876;28;20272;-54
2022/05/15 01:29:41;;;;;;;6.43;5.83;;;;;22.00;100914.00;;;;2078638;28;20217;-54
2022/05/15 01:30:42;;;;;;;7.00;6.40;;;;;22.10;100926.00;;;;2069797;28;20309;-55
2022/05/15 01:31:42;;;;;;;7.18;6.47;;;;;22.10;100922.00;;;;2069738;28;20449;-54
2022/05/15 01:32:43;;;;;;;7.17;6.57;;;;;22.10;100923.00;;;;2068549;28;20228;-54
2022/05/15 01:33:49;;;;;;;6.47;5.87;;;;;22.00;100919.00;;;;2069603;28;20264;-54
2022/05/15 01:34:50;;;;;;;6.78;6.18;;;;;22.00;100917.00;;;;2077752;28;20689;-54
2022/05/15 01:35:50;;;;;;;6.80;6.20;;;;;22.00;100927.00;;;;2077953;28;20220;-54
2022/05/15 01:36:52;;;;;;;7.10;6.43;;;;;22.00;100926.00;;;;2078578;28;20222;-54
2022/05/15 01:37:52;;;;;;;7.07;6.47;;;;;22.00;100926.00;;;;2078588;28;20292;-54
2022/05/15 01:38:52;;;;;;;6.53;6.03;;;;;22.00;100922.00;;;;2077725;28;20217;-54
2022/05/15 01:39:53;;;;;;;6.83;6.23;;;;;22.00;100930.00;;;;2077985;28;20741;-54
2022/05/15 01:40:53;;;;;;;7.10;6.50;;;;;22.00;100924.00;;;;2078389;28;20745;-54
2022/05/15 01:41:53;;;;;;;6.97;6.37;;;;;21.90;100930.00;;;;2077543;28;20729;-54
2022/05/15 01:42:54;;;;;;;8.60;5.83;;;;;22.00;100922.00;;;;2077800;28;20217;-54
2022/05/15 01:43:54;;;;;;;6.47;5.87;;;;;22.00;100919.00;;;;2077032;28;20221;-54
2022/05/15 01:44:54;;;;;;;6.40;5.80;;;;;22.00;100919.00;;;;2078452;28;20217;-54
2022/05/15 01:45:55;;;;;;;7.50;6.80;;;;;22.00;100917.00;;;;2075049;28;20642;-54
2022/05/15 01:46:55;;;;;;;6.70;6.10;;;;;22.00;100921.00;;;;2070365;28;20591;-54
2022/05/15 01:47:55;;;;;;;6.97;6.37;;;;;22.00;100915.00;;;;2070440;28;20224;-54
2022/05/15 01:48:56;;;;;;;6.47;5.97;;;;;22.00;100921.00;;;;2070144;28;20221;-54
2022/05/15 01:49:56;;;;;;;7.17;6.50;;;;;22.00;100923.00;;;;2069698;28;20229;-54
2022/05/15 01:50:57;;;;;;;6.93;6.33;;;;;22.00;100924.00;;;;2069754;28;20225;-54
2022/05/15 01:51:57;;;;;;;6.93;6.30;;;;;22.00;100922.00;;;;2069637;28;20621;-54
2022/05/15 01:52:57;;;;;;;6.87;6.27;;;;;22.00;100916.00;;;;2071289;28;20226;-54
2022/05/15 01:53:58;;;;;;;6.50;6.00;;;;;22.00;100921.00;;;;2078467;28;20210;-54
2022/05/15 01:54:58;;;;;;;7.20;6.53;;;;;22.00;100921.00;;;;2077672;28;20268;-54
2022/05/15 01:55:58;;;;;;;6.77;6.17;;;;;22.00;100918.00;;;;2068765;28;20210;-54
2022/05/15 01:56:59;;;;;;;6.37;5.77;;;;;22.00;100917.00;;;;2077094;28;20264;-54
2022/05/15 01:57:59;;;;;;;7.10;6.50;;;;;22.00;100912.00;;;;2078341;28;20263;-54
2022/05/15 01:58:59;;;;;;;6.93;6.33;;;;;22.00;100928.00;;;;2078520;28;20252;-54
2022/05/15 02:00:00;;;;;;;6.37;5.53;;;;;22.00;100917.00;;;;2069741;28;20385;-54
2022/05/15 02:01:00;;;;;;;7.13;6.40;;;;;22.00;100920.00;;;;2069437;28;20249;-54
2022/05/15 02:02:00;;;;;;;7.23;6.63;;;;;22.00;100917.00;;;;2069247;28;20226;-54
2022/05/15 02:03:01;;;;;;;6.77;6.20;;;;;21.90;100908.00;;;;2070067;28;20305;-54
2022/05/15 02:04:01;;;;;;;6.60;6.00;;;;;22.00;100921.00;;;;2070259;28;20218;-54
2022/05/15 02:05:01;;;;;;;6.87;6.30;;;;;22.00;100918.00;;;;2070315;28;20291;-54
2022/05/15 02:06:02;;;;;;;6.63;6.03;;;;;22.00;100922.00;;;;2067266;28;20225;-54
2022/05/15 02:07:03;;;;;;;6.43;5.90;;;;;21.90;100918.00;;;;2070137;28;20225;-54
2022/05/15 02:08:03;;;;;;;6.63;6.07;;;;;21.90;100912.00;;;;2071118;28;20471;-54
2022/05/15 02:09:04;;;;;;;6.70;6.10;;;;;21.90;100911.00;;;;2078717;28;20217;-54
2022/05/15 02:10:05;;;;;;;6.57;6.00;;;;;21.90;100915.00;;;;2079433;28;20316;-54
2022/05/15 02:11:05;;;;;;;6.65;6.05;;;;;21.90;100921.00;;;;2079886;28;20213;-54
2022/05/15 02:12:06;;;;;;;7.03;6.43;;;;;21.90;100915.00;;;;2079036;28;20745;-54
2022/05/15 02:13:06;;;;;;;6.87;6.20;;;;;21.90;100911.00;;;;2079970;28;20271;-54
2022/05/15 02:14:07;;;;;;;7.07;6.00;;;;;21.90;100912.00;;;;2078992;28;20513;-54
2022/05/15 02:15:08;;;;;;;6.30;5.70;;;;;21.90;100919.00;;;;2079316;28;20227;-54
2022/05/15 02:16:08;;;;;;;6.47;5.87;;;;;21.90;100916.00;;;;2079201;28;20213;-54
2022/05/15 02:17:08;;;;;;;6.60;6.00;;;;;21.90;100911.00;;;;2078312;28;20514;-54
2022/05/15 02:18:09;;;;;;;6.50;5.90;;;;;21.90;100914.00;;;;2071167;28;20292;-54
2022/05/15 02:19:09;;;;;;;7.13;6.50;;;;;21.90;100918.00;;;;2071153;28;20605;-53
2022/05/15 02:20:10;;;;;;;6.33;5.77;;;;;21.90;100910.00;;;;2071214;28;20687;-54
2022/05/15 02:21:11;;;;;;;6.65;6.13;;;;;21.90;100910.00;;;;2062629;28;20260;-54
2022/05/15 02:22:12;;;;;;;6.50;6.00;;;;;21.90;100904.00;;;;2061762;28;20222;-54
2022/05/15 02:23:12;;;;;;;6.45;5.95;;;;;21.90;100904.00;;;;2070598;28;20214;-55
2022/05/15 02:24:13;;;;;;;6.00;5.60;;;;;21.90;100906.00;;;;2073751;28;20274;-55
2022/05/15 02:25:13;;;;;;;6.23;5.73;;;;;21.90;100908.00;;;;2078822;28;20210;-55
2022/05/15 02:26:14;;;;;;;6.53;5.93;;;;;21.90;100913.00;;;;2077927;28;20314;-54
2022/05/15 02:27:14;;;;;;;6.10;5.60;;;;;21.80;100907.00;;;;2079423;28;21008;-54
2022/05/15 02:28:15;;;;;;;6.50;6.00;;;;;21.80;100905.00;;;;2079010;28;20581;-54
2022/05/15 02:29:15;;;;;;;6.87;6.27;;;;;21.80;100893.00;;;;2078764;28;20210;-54
2022/05/15 02:30:16;;;;;;;6.50;5.90;;;;;21.90;100909.00;;;;2070531;28;20221;-54
2022/05/15 02:31:17;;;;;;;6.28;5.70;;;;;21.90;100907.00;;;;2071164;28;20218;-54
2022/05/15 02:32:17;;;;;;;6.57;5.97;;;;;21.90;100910.00;;;;2079798;28;20205;-54
2022/05/15 02:33:18;;;;;;;6.33;5.83;;;;;21.90;100907.00;;;;2078993;28;20210;-54
2022/05/15 02:34:18;;;;;;;6.73;6.13;;;;;21.80;100917.00;;;;2079855;28;20233;-54
2022/05/15 02:35:18;;;;;;;7.10;6.40;;;;;21.70;100912.00;;;;2079548;28;20666;-54
2022/05/15 02:36:19;;;;;;;6.23;5.60;;;;;21.90;100837.00;;;;2079719;28;20816;-54
2022/05/15 02:37:19;;;;;;;6.43;5.83;;;;;21.90;100913.00;;;;2079558;28;20891;-54
2022/05/15 02:38:19;;;;;;;6.10;5.60;;;;;21.80;100904.00;;;;2079721;28;20212;-54
2022/05/15 02:39:20;;;;;;;6.17;5.60;;;;;21.80;100909.00;;;;2079872;28;20214;-56
2022/05/15 02:40:21;;;;;;;7.20;6.03;;;;;21.80;100906.00;;;;2079781;28;20213;-55
2022/05/15 02:41:22;;;;;;;6.13;5.63;;;;;21.80;100913.00;;;;2078925;28;20248;-54
2022/05/15 02:42:22;;;;;;;6.53;5.93;;;;;21.80;100910.00;;;;2070785;28;20221;-54
2022/05/15 02:43:22;;;;;;;6.50;5.90;;;;;21.90;100917.00;;;;2079145;28;20205;-54
2022/05/15 02:44:23;;;;;;;5.77;5.27;;;;;21.80;100910.00;;;;2079841;28;20229;-54
2022/05/15 02:45:24;;;;;;;7.60;6.20;;;;;21.80;100901.00;;;;2079046;28;20216;-54
2022/05/15 02:46:24;;;;;;;6.53;5.93;;;;;21.80;100908.00;;;;2079480;28;20219;-54
2022/05/15 02:47:24;;;;;;;6.37;5.77;;;;;21.80;100905.00;;;;2078017;28;20317;-54
2022/05/15 02:51:05;;;;;;;6.53;5.93;;;;;21.80;100914.00;;;;2079617;28;20768;-54
2022/05/15 02:52:06;;;;;;;5.60;5.18;;;;;21.80;100911.00;;;;2079507;28;20561;-54
2022/05/15 02:53:06;;;;;;;7.10;6.40;;;;;21.80;100907.00;;;;2079890;28;20221;-54
2022/05/15 02:54:06;;;;;;;6.63;6.03;;;;;21.80;100905.00;;;;2079763;28;20217;-54
2022/05/15 02:55:07;;;;;;;6.60;5.67;;;;;21.80;100901.00;;;;2079738;28;20210;-54
2022/05/15 02:56:13;;;;;;;7.00;5.93;;;;;21.80;100908.00;;;;2078996;28;20225;-54
2022/05/15 02:57:13;;;;;;;6.15;5.55;;;;;21.80;100874.00;;;;2078502;28;21237;-54
2022/05/15 02:58:13;;;;;;;6.50;5.80;;;;;21.80;100905.00;;;;2071353;28;20218;-54
2022/05/15 02:59:14;;;;;;;7.13;6.23;;;;;21.80;100906.00;;;;2078676;28;20693;-54
2022/05/15 03:00:15;;;;;;;5.97;5.47;;;;;21.80;100910.00;;;;2079796;28;20829;-54
2022/05/15 03:01:15;;;;;;;6.70;6.07;;;;;21.80;100916.00;;;;2079686;28;20690;-54
2022/05/15 03:02:16;;;;;;;6.10;5.50;;;;;21.80;100909.00;;;;2079414;28;20468;-54
2022/05/15 03:03:16;;;;;;;5.97;5.47;;;;;21.80;100906.00;;;;2079076;28;20741;-54
2022/05/15 03:04:16;;;;;;;6.57;5.97;;;;;21.80;100914.00;;;;2079125;28;20240;-54
2022/05/15 03:05:17;;;;;;;6.07;5.47;;;;;21.80;100911.00;;;;2079367;28;20252;-54
2022/05/15 03:06:17;;;;;;;6.17;5.60;;;;;21.80;100911.00;;;;2078614;28;20224;-54
2022/05/15 03:07:18;;;;;;;6.50;5.87;;;;;21.80;100909.00;;;;2070866;28;20266;-54
2022/05/15 03:08:18;;;;;;;7.13;6.27;;;;;21.80;100901.00;;;;2078805;28;20221;-54
2022/05/15 03:09:19;;;;;;;6.00;5.50;;;;;21.70;100906.00;;;;2070575;28;20304;-54
2022/05/15 03:10:21;;;;;;;6.37;5.80;;;;;21.70;100905.00;;;;2062547;28;20219;-55
2022/05/15 03:11:21;;;;;;;8.23;6.40;;;;;21.70;100909.00;;;;2070865;28;20467;-55
2022/05/15 03:12:22;;;;;;;7.40;6.40;;;;;21.80;100904.00;;;;2079513;28;21163;-54
2022/05/15 03:13:22;;;;;;;7.20;6.20;;;;;21.80;100907.00;;;;2079427;28;20287;-55
2022/05/15 03:14:22;;;;;;;6.00;5.57;;;;;21.80;100907.00;;;;2077815;28;20262;-54
2022/05/15 03:15:23;;;;;;;6.30;5.80;;;;;21.80;100906.00;;;;2077133;28;20281;-54
2022/05/15 03:16:23;;;;;;;6.63;6.03;;;;;21.80;100913.00;;;;2074043;28;20214;-54
2022/05/15 03:17:23;;;;;;;6.50;5.90;;;;;21.70;100908.00;;;;2075950;28;20628;-54
2022/05/15 03:18:24;;;;;;;6.93;6.23;;;;;21.70;100912.00;;;;2072071;28;20345;-54
2022/05/15 03:19:24;;;;;;;7.03;6.33;;;;;21.80;100899.00;;;;2079216;28;20222;-54
2022/05/15 03:20:27;;;;;;;6.60;5.90;;;;;21.70;100899.00;;;;2079289;28;20251;-54
2022/05/15 03:21:30;;;;;;;6.88;6.28;;;;;21.70;100904.00;;;;2079384;28;20213;-54
2022/05/15 03:22:30;;;;;;;6.43;5.82;;;;;21.70;100903.00;;;;2079603;28;20260;-54
2022/05/15 03:23:31;;;;;;;5.40;5.00;;;;;21.70;100900.00;;;;2079373;28;20225;-54
2022/05/15 03:24:31;;;;;;;6.70;6.20;;;;;21.70;100894.00;;;;2079375;28;20686;-54
2022/05/15 03:25:33;;;;;;;8.17;6.27;;;;;21.70;100899.00;;;;2078727;28;20554;-54
2022/05/15 03:26:35;;;;;;;6.93;5.90;;;;;21.70;100892.00;;;;2079559;28;20293;-54
2022/05/15 03:27:35;;;;;;;6.68;6.05;;;;;21.70;100900.00;;;;2079532;28;20304;-54
2022/05/15 03:28:36;;;;;;;6.90;5.83;;;;;21.70;100892.00;;;;2079593;28;20213;-54
2022/05/15 03:29:36;;;;;;;6.67;6.07;;;;;21.70;100890.00;;;;2079362;28;20206;-54
2022/05/15 03:30:40;;;;;;;8.07;5.70;;;;;21.70;100894.00;;;;2071317;28;20245;-54
2022/05/15 03:31:41;;;;;;;6.40;5.80;;;;;21.70;100900.00;;;;2070947;28;20213;-54
2022/05/15 03:32:41;;;;;;;6.73;6.10;;;;;21.70;100898.00;;;;2070997;28;20897;-54
2022/05/15 03:33:41;;;;;;;7.00;6.40;;;;;21.70;100895.00;;;;2071667;28;20706;-54
2022/05/15 03:34:42;;;;;;;7.23;6.60;;;;;21.70;100895.00;;;;2076808;28;20691;-54
2022/05/15 03:35:42;;;;;;;6.50;5.90;;;;;21.70;100888.00;;;;2079071;28;20221;-54
2022/05/15 03:36:43;;;;;;;6.90;6.30;;;;;21.70;100896.00;;;;2078819;28;20225;-53
2022/05/15 03:37:43;;;;;;;7.00;5.97;;;;;21.70;100890.00;;;;2079282;28;20225;-53
2022/05/15 03:38:47;;;;;;;6.20;5.70;;;;;21.70;100899.00;;;;2079769;28;20467;-54
2022/05/15 03:39:47;;;;;;;7.18;6.20;;;;;21.70;100890.00;;;;2079506;28;20209;-54
2022/05/15 03:40:48;;;;;;;6.73;6.13;;;;;21.70;100893.00;;;;2079416;28;20630;-55
2022/05/15 03:41:48;;;;;;;6.40;5.90;;;;;21.70;100890.00;;;;2079426;28;20569;-54
2022/05/15 03:42:49;;;;;;;6.83;6.23;;;;;21.60;100892.00;;;;2078138;28;20609;-55
2022/05/15 03:43:49;;;;;;;6.90;6.20;;;;;21.70;100889.00;;;;2079019;28;20267;-54
2022/05/15 03:44:49;;;;;;;6.43;5.83;;;;;21.70;100891.00;;;;2079255;28;20221;-54
2022/05/15 03:45:50;;;;;;;7.10;6.40;;;;;21.70;100891.00;;;;2078560;28;20706;-55
2022/05/15 03:46:51;;;;;;;6.37;5.77;;;;;21.70;100893.00;;;;2079523;28;20805;-55
2022/05/15 03:47:52;;;;;;;6.90;6.25;;;;;21.60;100893.00;;;;2079790;28;20221;-54
2022/05/15 03:48:53;;;;;;;6.43;5.90;;;;;21.70;100887.00;;;;2072236;28;20222;-54
2022/05/15 03:49:53;;;;;;;6.50;5.90;;;;;21.70;100884.00;;;;2063189;28;20215;-54
2022/05/15 03:50:53;;;;;;;6.60;5.93;;;;;21.70;100880.00;;;;2079198;28;20220;-54
2022/05/15 03:51:54;;;;;;;6.83;5.77;;;;;21.60;100884.00;;;;2072802;28;20230;-54
2022/05/15 03:52:55;;;;;;;6.03;5.43;;;;;21.70;100890.00;;;;2077282;28;20245;-54
2022/05/15 03:53:55;;;;;;;6.90;6.20;;;;;21.70;100889.00;;;;2078454;28;20221;-55
2022/05/15 03:54:55;;;;;;;6.67;6.07;;;;;21.70;100885.00;;;;2079121;28;20459;-55
2022/05/15 03:55:58;;;;;;;6.40;5.80;;;;;21.70;100884.00;;;;2078633;28;20292;-56
2022/05/15 03:56:58;;;;;;;6.60;6.00;;;;;21.70;100883.00;;;;2079274;28;20220;-54
2022/05/15 03:57:58;;;;;;;6.97;6.37;;;;;21.70;100886.00;;;;2079488;28;20701;-55
2022/05/15 03:58:59;;;;;;;6.50;5.90;;;;;21.70;100886.00;;;;2079486;28;20789;-55
2022/05/15 03:59:59;;;;;;;7.03;6.33;;;;;21.70;100890.00;;;;2079117;28;20559;-54
2022/05/15 04:01:00;;;;;;;8.30;6.50;;;;;21.70;100888.00;;;;2079202;28;20756;-55
2022/05/15 04:02:00;;;;;;;6.47;5.87;;;;;21.70;100873.00;;;;2079072;28;20260;-54
2022/05/15 04:03:01;;;;;;;6.97;6.23;;;;;21.70;100880.00;;;;2079317;28;20229;-54
2022/05/15 04:04:01;;;;;;;6.10;5.60;;;;;21.70;100875.00;;;;2079551;28;20233;-54
2022/05/15 04:05:01;;;;;;;6.67;5.97;;;;;21.60;100894.00;;;;2076420;28;20210;-55
2022/05/15 04:06:02;;;;;;;6.63;6.00;;;;;21.60;100881.00;;;;2074232;28;20213;-55
2022/05/15 04:07:02;;;;;;;6.47;5.73;;;;;21.60;100876.00;;;;2070890;28;20293;-55
2022/05/15 04:08:03;;;;;;;6.33;5.80;;;;;21.60;100884.00;;;;2071138;28;20297;-54
2022/05/15 04:09:03;;;;;;;6.70;6.10;;;;;21.60;100883.00;;;;2071139;28;21250;-55
2022/05/15 04:10:05;;;;;;;6.67;6.03;;;;;21.60;100887.00;;;;2074704;28;20264;-55
2022/05/15 04:11:05;;;;;;;6.88;6.20;;;;;21.60;100885.00;;;;2074462;28;20252;-55
2022/05/15 04:12:09;;;;;;;6.10;5.60;;;;;21.60;100878.00;;;;2070132;28;20206;-55
2022/05/15 04:13:10;;;;;;;6.13;5.53;;;;;21.60;100869.00;;;;2070802;28;20210;-55
2022/05/15 04:14:10;;;;;;;8.03;7.23;;;;;21.60;100878.00;;;;2074745;28;20216;-54
2022/05/15 04:15:11;;;;;;;8.00;6.50;;;;;21.60;100888.00;;;;2075857;28;20222;-55
2022/05/15 04:16:11;;;;;;;6.83;6.13;;;;;21.60;100884.00;;;;2077827;28;20275;-54
2022/05/15 04:17:11;;;;;;;7.10;6.40;;;;;21.60;100870.00;;;;2078798;28;20367;-54
2022/05/15 04:18:12;;;;;;;6.70;6.10;;;;;21.60;100876.00;;;;2071782;28;20837;-55
2022/05/15 04:19:12;;;;;;;6.67;6.07;;;;;21.60;100872.00;;;;2075830;28;20827;-54
2022/05/15 04:20:13;;;;;;;7.70;5.93;;;;;21.60;100872.00;;;;2078966;28;20210;-54
2022/05/15 04:21:14;;;;;;;6.43;5.82;;;;;21.60;100870.00;;;;2079218;28;20585;-54
2022/05/15 04:22:14;;;;;;;6.70;6.00;;;;;21.60;100872.00;;;;2075223;28;20233;-54
2022/05/15 04:23:14;;;;;;;7.07;6.40;;;;;21.60;100876.00;;;;2070900;28;20218;-54
2022/05/15 04:24:16;;;;;;;7.17;6.27;;;;;21.60;100878.00;;;;2074648;28;20221;-54
2022/05/15 04:25:17;;;;;;;7.10;6.22;;;;;21.60;100872.00;;;;2070166;28;20271;-54
2022/05/15 04:26:17;;;;;;;6.03;5.53;;;;;21.60;100881.00;;;;2069773;28;20210;-54
2022/05/15 04:27:17;;;;;;;6.10;5.50;;;;;21.60;100877.00;;;;2074829;28;20460;-54
2022/05/15 04:28:18;;;;;;;6.60;6.00;;;;;21.60;100872.00;;;;2078369;28;20263;-54
2022/05/15 04:29:18;;;;;;;7.90;6.43;;;;;21.60;100883.00;;;;2076491;28;20205;-54
2022/05/15 04:30:22;;;;;;;6.77;6.17;;;;;21.60;100873.00;;;;2074913;28;20217;-54
2022/05/15 04:31:22;;;;;;;6.25;5.65;;;;;21.60;100873.00;;;;2066097;28;20274;-54
2022/05/15 04:32:22;;;;;;;6.63;5.80;;;;;21.60;100880.00;;;;2068723;28;20903;-54
2022/05/15 04:33:23;;;;;;;6.80;6.10;;;;;21.60;100874.00;;;;2069656;28;20717;-54
2022/05/15 04:34:24;;;;;;;7.00;6.40;;;;;21.60;100882.00;;;;2070314;28;20214;-54
2022/05/15 04:35:24;;;;;;;6.63;5.93;;;;;21.60;100875.00;;;;2070331;28;20229;-54
2022/05/15 04:36:25;;;;;;;6.47;5.87;;;;;21.60;100829.00;;;;2075469;28;20240;-54
2022/05/15 04:37:25;;;;;;;7.13;6.43;;;;;21.60;100870.00;;;;2075517;28;20666;-54
2022/05/15 04:38:26;;;;;;;7.03;6.40;;;;;21.70;100876.00;;;;2075595;28;20210;-54
2022/05/15 04:39:26;;;;;;;7.20;6.47;;;;;21.60;100878.00;;;;2071797;28;20229;-54
2022/05/15 04:40:27;;;;;;;6.63;6.00;;;;;21.60;100876.00;;;;2075366;28;20693;-54
2022/05/15 04:41:27;;;;;;;7.30;6.47;;;;;21.60;100878.00;;;;2072942;28;20280;-54
2022/05/15 04:42:28;;;;;;;6.13;5.63;;;;;21.70;100870.00;;;;2070931;28;20221;-54
2022/05/15 04:43:28;;;;;;;6.17;5.57;;;;;21.60;100880.00;;;;2070628;28;20214;-54
2022/05/15 04:44:29;;;;;;;7.60;6.53;;;;;21.70;100883.00;;;;2076131;28;20215;-54
2022/05/15 04:45:29;;;;;;;7.40;6.50;;;;;21.70;100874.00;;;;2078425;28;20213;-54
2022/05/15 04:46:30;;;;;;;6.93;5.90;;;;;21.70;100880.00;;;;2078794;28;20657;-54
2022/05/15 04:47:30;;;;;;;7.60;6.87;;;;;21.70;100876.00;;;;2078603;28;20244;-54
2022/05/15 04:48:31;;;;;;;6.30;5.80;;;;;21.70;100873.00;;;;2076903;28;20275;-54
2022/05/15 04:49:31;;;;;;;6.23;5.63;;;;;21.70;100881.00;;;;2070527;28;20233;-54
2022/05/15 04:50:31;;;;;;;6.20;5.60;;;;;21.70;100875.00;;;;2076237;28;20221;-54
2022/05/15 04:51:38;;;;;;;6.90;6.20;;;;;21.60;100876.00;;;;2076347;28;20552;-54
2022/05/15 04:52:38;;;;;;;6.40;5.80;;;;;21.60;100878.00;;;;2071790;28;20222;-54
2022/05/15 04:53:39;;;;;;;6.33;5.83;;;;;21.70;100882.00;;;;2072029;28;20209;-55
2022/05/15 04:54:39;;;;;;;6.40;5.77;;;;;21.70;100883.00;;;;2077577;28;20240;-55
2022/05/15 04:55:39;;;;;;;6.70;6.00;;;;;21.70;100877.00;;;;2077014;28;20221;-55
2022/05/15 04:56:40;;;;;;;8.23;6.90;;;;;21.70;100882.00;;;;2077596;28;20287;-55
2022/05/15 04:57:40;;;;;;;6.90;5.67;;;;;21.70;100875.00;;;;2073804;28;20214;-54
2022/05/15 04:58:41;;;;;;;7.47;6.30;;;;;21.70;100877.00;;;;2077708;28;20213;-54
2022/05/15 04:59:41;;;;;;;7.67;6.30;;;;;21.70;100879.00;;;;2077396;28;20665;-54
2022/05/15 05:00:43;;;;;;;7.07;6.03;;;;;21.70;100888.00;;;;2076942;28;20239;-54
2022/05/15 05:01:43;;;;;;;6.50;5.80;;;;;21.70;100883.00;;;;2081339;28;20220;-54
2022/05/15 05:02:44;;;;;;;5.90;5.30;;;;;21.70;100887.00;;;;2077558;28;20674;-54
2022/05/15 05:03:44;;;;;;;6.47;5.77;;;;;21.70;100886.00;;;;2084902;28;20212;-54